sensor_id;sensor_type;location;lat;lon;timestamp;P1;durP1;ratioP1;P2;durP2;ratioP2
18338;SDS011;9295;44.484;11.240;2022-12-29T00:00:20;142.63;;;60.80;;
18338;SDS011;9295;44.484;11.240;2022-12-29T00:02:49;149.23;;;62.67;;
18338;SDS011;9295;44.484;11.240;2022-12-29T00:05:17;145.17;;;60.97;;
18338;SDS011;9295;44.484;11.240;2022-12-29T00:07:47;153.93;;;63.07;;
18338;SDS011;9295;44.484;11.240;2022-12-29T00:10:16;142.47;;;62.23;;
18338;SDS011;9295;44.484;11.240;2022-12-29T00:12:44;151.90;;;61.17;;
18338;SDS011;9295;44.484;11.240;2022-12-29T00:15:30;157.47;;;60.47;;
18338;SDS011;9295;44.484;11.240;2022-12-29T00:18:06;156.50;;;59.60;;
18338;SDS011;9295;44.484;11.240;2022-12-29T00:20:37;166.83;;;65.87;;
18338;SDS011;9295;44.484;11.240;2022-12-29T00:23:25;174.90;;;65.83;;
18338;SDS011;9295;44.484;11.240;2022-12-29T00:26:12;189.10;;;67.00;;
18338;SDS011;9295;44.484;11.240;2022-12-29T00:28:59;169.20;;;65.47;;
18338;SDS011;9295;44.484;11.240;2022-12-29T00:31:44;176.90;;;66.87;;
18338;SDS011;9295;44.484;11.240;2022-12-29T00:34:33;185.50;;;69.30;;
18338;SDS011;9295;44.484;11.240;2022-12-29T00:37:30;178.43;;;67.50;;
18338;SDS011;9295;44.484;11.240;2022-12-29T00:40:14;198.03;;;69.37;;
18338;SDS011;9295;44.484;11.240;2022-12-29T00:43:00;214.87;;;67.80;;
18338;SDS011;9295;44.484;11.240;2022-12-29T00:45:46;203.60;;;69.00;;
18338;SDS011;9295;44.484;11.240;2022-12-29T00:48:14;207.00;;;72.27;;
18338;SDS011;9295;44.484;11.240;2022-12-29T00:51:03;214.37;;;71.03;;
18338;SDS011;9295;44.484;11.240;2022-12-29T00:53:34;205.97;;;70.37;;
18338;SDS011;9295;44.484;11.240;2022-12-29T00:56:04;202.70;;;73.47;;
18338;SDS011;9295;44.484;11.240;2022-12-29T00:58:33;188.00;;;71.80;;
18338;SDS011;9295;44.484;11.240;2022-12-29T01:01:01;195.77;;;74.37;;
18338;SDS011;9295;44.484;11.240;2022-12-29T01:03:34;194.70;;;71.70;;
18338;SDS011;9295;44.484;11.240;2022-12-29T01:06:05;196.00;;;71.80;;
18338;SDS011;9295;44.484;11.240;2022-12-29T01:08:36;197.03;;;70.97;;
18338;SDS011;9295;44.484;11.240;2022-12-29T01:11:07;214.90;;;71.83;;
18338;SDS011;9295;44.484;11.240;2022-12-29T01:13:36;187.50;;;70.57;;
18338;SDS011;9295;44.484;11.240;2022-12-29T01:16:10;202.80;;;71.53;;
18338;SDS011;9295;44.484;11.240;2022-12-29T01:18:40;195.80;;;70.47;;
18338;SDS011;9295;44.484;11.240;2022-12-29T01:21:09;193.47;;;69.90;;
18338;SDS011;9295;44.484;11.240;2022-12-29T01:23:40;185.73;;;72.33;;
18338;SDS011;9295;44.484;11.240;2022-12-29T01:26:11;180.20;;;67.87;;
18338;SDS011;9295;44.484;11.240;2022-12-29T01:28:40;185.03;;;71.00;;
18338;SDS011;9295;44.484;11.240;2022-12-29T01:31:11;183.13;;;71.10;;
18338;SDS011;9295;44.484;11.240;2022-12-29T01:33:42;176.87;;;64.73;;
18338;SDS011;9295;44.484;11.240;2022-12-29T01:36:14;178.20;;;68.37;;
18338;SDS011;9295;44.484;11.240;2022-12-29T01:38:44;189.93;;;68.53;;
18338;SDS011;9295;44.484;11.240;2022-12-29T01:41:14;188.37;;;70.67;;
18338;SDS011;9295;44.484;11.240;2022-12-29T01:43:46;178.73;;;66.03;;
18338;SDS011;9295;44.484;11.240;2022-12-29T01:46:20;183.10;;;71.37;;
18338;SDS011;9295;44.484;11.240;2022-12-29T01:48:54;155.00;;;67.50;;
18338;SDS011;9295;44.484;11.240;2022-12-29T01:51:25;177.63;;;69.23;;
18338;SDS011;9295;44.484;11.240;2022-12-29T01:53:56;166.60;;;67.70;;
18338;SDS011;9295;44.484;11.240;2022-12-29T01:56:28;147.83;;;65.10;;
18338;SDS011;9295;44.484;11.240;2022-12-29T01:58:59;158.20;;;65.00;;
18338;SDS011;9295;44.484;11.240;2022-12-29T02:01:31;161.10;;;64.50;;
18338;SDS011;9295;44.484;11.240;2022-12-29T02:04:01;166.33;;;70.73;;
18338;SDS011;9295;44.484;11.240;2022-12-29T02:06:31;149.03;;;66.37;;
18338;SDS011;9295;44.484;11.240;2022-12-29T02:09:03;160.83;;;67.10;;
18338;SDS011;9295;44.484;11.240;2022-12-29T02:11:32;147.90;;;65.23;;
18338;SDS011;9295;44.484;11.240;2022-12-29T02:14:08;157.40;;;66.00;;
18338;SDS011;9295;44.484;11.240;2022-12-29T02:16:44;166.40;;;67.30;;
18338;SDS011;9295;44.484;11.240;2022-12-29T02:22:29;156.63;;;66.57;;
18338;SDS011;9295;44.484;11.240;2022-12-29T02:28:14;172.37;;;70.60;;
18338;SDS011;9295;44.484;11.240;2022-12-29T02:31:02;155.17;;;64.70;;
18338;SDS011;9295;44.484;11.240;2022-12-29T02:33:41;159.47;;;69.57;;
18338;SDS011;9295;44.484;11.240;2022-12-29T02:36:27;162.27;;;65.60;;
18338;SDS011;9295;44.484;11.240;2022-12-29T02:39:07;145.37;;;66.23;;
18338;SDS011;9295;44.484;11.240;2022-12-29T02:41:46;150.70;;;66.83;;
18338;SDS011;9295;44.484;11.240;2022-12-29T02:44:26;152.77;;;66.30;;
18338;SDS011;9295;44.484;11.240;2022-12-29T02:47:05;149.70;;;65.43;;
18338;SDS011;9295;44.484;11.240;2022-12-29T02:49:43;152.70;;;63.87;;
18338;SDS011;9295;44.484;11.240;2022-12-29T02:52:16;151.13;;;67.20;;
18338;SDS011;9295;44.484;11.240;2022-12-29T02:54:49;155.77;;;70.23;;
18338;SDS011;9295;44.484;11.240;2022-12-29T02:57:28;143.70;;;65.07;;
18338;SDS011;9295;44.484;11.240;2022-12-29T03:00:01;171.80;;;69.80;;
18338;SDS011;9295;44.484;11.240;2022-12-29T03:02:58;149.37;;;69.30;;
18338;SDS011;9295;44.484;11.240;2022-12-29T03:05:42;163.20;;;68.97;;
18338;SDS011;9295;44.484;11.240;2022-12-29T03:08:31;145.50;;;66.40;;
18338;SDS011;9295;44.484;11.240;2022-12-29T03:11:05;162.57;;;68.80;;
18338;SDS011;9295;44.484;11.240;2022-12-29T03:13:59;158.97;;;70.10;;
18338;SDS011;9295;44.484;11.240;2022-12-29T03:16:52;160.00;;;67.10;;
18338;SDS011;9295;44.484;11.240;2022-12-29T03:19:30;170.83;;;72.57;;
18338;SDS011;9295;44.484;11.240;2022-12-29T03:22:02;179.67;;;72.97;;
18338;SDS011;9295;44.484;11.240;2022-12-29T03:25:12;174.50;;;72.80;;
18338;SDS011;9295;44.484;11.240;2022-12-29T03:27:48;177.80;;;69.90;;
18338;SDS011;9295;44.484;11.240;2022-12-29T03:30:19;168.30;;;70.70;;
18338;SDS011;9295;44.484;11.240;2022-12-29T03:32:53;161.47;;;73.77;;
18338;SDS011;9295;44.484;11.240;2022-12-29T03:35:29;170.77;;;73.60;;
18338;SDS011;9295;44.484;11.240;2022-12-29T03:38:03;188.47;;;74.17;;
18338;SDS011;9295;44.484;11.240;2022-12-29T03:40:37;173.47;;;71.60;;
18338;SDS011;9295;44.484;11.240;2022-12-29T03:43:09;174.30;;;72.73;;
18338;SDS011;9295;44.484;11.240;2022-12-29T03:45:40;183.63;;;73.57;;
18338;SDS011;9295;44.484;11.240;2022-12-29T03:48:09;163.70;;;72.10;;
18338;SDS011;9295;44.484;11.240;2022-12-29T03:50:41;187.20;;;75.67;;
18338;SDS011;9295;44.484;11.240;2022-12-29T03:53:10;198.30;;;76.37;;
18338;SDS011;9295;44.484;11.240;2022-12-29T03:55:38;183.83;;;73.87;;
18338;SDS011;9295;44.484;11.240;2022-12-29T03:58:07;182.47;;;73.77;;
18338;SDS011;9295;44.484;11.240;2022-12-29T04:00:58;194.27;;;76.13;;
18338;SDS011;9295;44.484;11.240;2022-12-29T04:03:30;193.30;;;75.47;;
18338;SDS011;9295;44.484;11.240;2022-12-29T04:06:00;189.47;;;71.93;;
18338;SDS011;9295;44.484;11.240;2022-12-29T04:08:35;185.07;;;72.87;;
18338;SDS011;9295;44.484;11.240;2022-12-29T04:11:05;163.03;;;68.47;;
18338;SDS011;9295;44.484;11.240;2022-12-29T04:13:33;203.23;;;76.03;;
18338;SDS011;9295;44.484;11.240;2022-12-29T04:16:02;183.97;;;71.90;;
18338;SDS011;9295;44.484;11.240;2022-12-29T04:18:32;184.83;;;74.33;;
18338;SDS011;9295;44.484;11.240;2022-12-29T04:21:01;191.90;;;75.57;;
18338;SDS011;9295;44.484;11.240;2022-12-29T04:23:33;198.63;;;76.10;;
18338;SDS011;9295;44.484;11.240;2022-12-29T04:26:06;227.30;;;82.13;;
18338;SDS011;9295;44.484;11.240;2022-12-29T04:28:58;218.10;;;82.20;;
18338;SDS011;9295;44.484;11.240;2022-12-29T04:31:41;214.67;;;78.13;;
18338;SDS011;9295;44.484;11.240;2022-12-29T04:34:13;230.77;;;79.30;;
18338;SDS011;9295;44.484;11.240;2022-12-29T04:36:47;230.67;;;80.73;;
18338;SDS011;9295;44.484;11.240;2022-12-29T04:39:16;209.43;;;78.37;;
18338;SDS011;9295;44.484;11.240;2022-12-29T04:41:45;220.83;;;75.30;;
18338;SDS011;9295;44.484;11.240;2022-12-29T04:44:18;250.23;;;84.13;;
18338;SDS011;9295;44.484;11.240;2022-12-29T04:47:13;218.17;;;78.80;;
18338;SDS011;9295;44.484;11.240;2022-12-29T04:49:54;217.10;;;74.47;;
18338;SDS011;9295;44.484;11.240;2022-12-29T04:52:43;221.67;;;77.57;;
18338;SDS011;9295;44.484;11.240;2022-12-29T04:55:13;198.03;;;72.97;;
18338;SDS011;9295;44.484;11.240;2022-12-29T04:57:44;191.60;;;72.47;;
18338;SDS011;9295;44.484;11.240;2022-12-29T05:00:17;203.63;;;74.00;;
18338;SDS011;9295;44.484;11.240;2022-12-29T05:02:46;205.03;;;75.63;;
18338;SDS011;9295;44.484;11.240;2022-12-29T05:05:15;196.40;;;70.73;;
18338;SDS011;9295;44.484;11.240;2022-12-29T05:07:50;186.00;;;64.27;;
18338;SDS011;9295;44.484;11.240;2022-12-29T05:10:19;188.63;;;66.07;;
18338;SDS011;9295;44.484;11.240;2022-12-29T05:12:51;219.50;;;72.00;;
18338;SDS011;9295;44.484;11.240;2022-12-29T05:15:20;210.83;;;72.57;;
18338;SDS011;9295;44.484;11.240;2022-12-29T05:17:49;201.00;;;68.60;;
18338;SDS011;9295;44.484;11.240;2022-12-29T05:20:18;205.63;;;69.83;;
18338;SDS011;9295;44.484;11.240;2022-12-29T05:22:46;217.17;;;73.03;;
18338;SDS011;9295;44.484;11.240;2022-12-29T05:25:16;215.20;;;70.03;;
18338;SDS011;9295;44.484;11.240;2022-12-29T05:27:54;242.43;;;75.50;;
18338;SDS011;9295;44.484;11.240;2022-12-29T05:30:39;227.43;;;76.80;;
18338;SDS011;9295;44.484;11.240;2022-12-29T05:33:08;236.97;;;77.73;;
18338;SDS011;9295;44.484;11.240;2022-12-29T05:35:42;236.20;;;76.17;;
18338;SDS011;9295;44.484;11.240;2022-12-29T05:38:11;218.67;;;74.33;;
18338;SDS011;9295;44.484;11.240;2022-12-29T05:40:42;231.40;;;73.77;;
18338;SDS011;9295;44.484;11.240;2022-12-29T05:43:29;226.97;;;67.37;;
18338;SDS011;9295;44.484;11.240;2022-12-29T05:46:20;181.50;;;61.10;;
18338;SDS011;9295;44.484;11.240;2022-12-29T05:48:58;197.23;;;63.00;;
18338;SDS011;9295;44.484;11.240;2022-12-29T05:51:36;200.60;;;65.47;;
18338;SDS011;9295;44.484;11.240;2022-12-29T05:54:06;191.13;;;64.27;;
18338;SDS011;9295;44.484;11.240;2022-12-29T05:56:37;181.00;;;65.60;;
18338;SDS011;9295;44.484;11.240;2022-12-29T05:59:06;184.00;;;65.30;;
18338;SDS011;9295;44.484;11.240;2022-12-29T06:01:36;179.00;;;63.10;;
18338;SDS011;9295;44.484;11.240;2022-12-29T06:04:04;178.03;;;62.40;;
18338;SDS011;9295;44.484;11.240;2022-12-29T06:06:36;177.90;;;59.40;;
18338;SDS011;9295;44.484;11.240;2022-12-29T06:09:09;189.97;;;57.30;;
18338;SDS011;9295;44.484;11.240;2022-12-29T06:11:39;180.00;;;58.17;;
18338;SDS011;9295;44.484;11.240;2022-12-29T06:14:09;191.27;;;60.30;;
18338;SDS011;9295;44.484;11.240;2022-12-29T06:16:38;173.73;;;59.20;;
18338;SDS011;9295;44.484;11.240;2022-12-29T06:19:10;183.57;;;58.50;;
18338;SDS011;9295;44.484;11.240;2022-12-29T06:21:39;197.33;;;61.03;;
18338;SDS011;9295;44.484;11.240;2022-12-29T06:24:09;169.93;;;57.17;;
18338;SDS011;9295;44.484;11.240;2022-12-29T06:26:39;184.83;;;62.37;;
18338;SDS011;9295;44.484;11.240;2022-12-29T06:29:08;178.33;;;58.00;;
18338;SDS011;9295;44.484;11.240;2022-12-29T06:31:37;187.87;;;57.57;;
18338;SDS011;9295;44.484;11.240;2022-12-29T06:34:06;171.17;;;52.67;;
18338;SDS011;9295;44.484;11.240;2022-12-29T06:36:37;162.07;;;51.93;;
18338;SDS011;9295;44.484;11.240;2022-12-29T06:39:06;193.67;;;55.70;;
18338;SDS011;9295;44.484;11.240;2022-12-29T06:41:35;164.90;;;53.80;;
18338;SDS011;9295;44.484;11.240;2022-12-29T06:44:39;149.60;;;51.63;;
18338;SDS011;9295;44.484;11.240;2022-12-29T06:47:09;175.37;;;53.80;;
18338;SDS011;9295;44.484;11.240;2022-12-29T06:49:37;165.97;;;53.13;;
18338;SDS011;9295;44.484;11.240;2022-12-29T06:52:06;162.87;;;56.00;;
18338;SDS011;9295;44.484;11.240;2022-12-29T06:54:38;153.70;;;53.93;;
18338;SDS011;9295;44.484;11.240;2022-12-29T06:57:07;148.97;;;53.73;;
18338;SDS011;9295;44.484;11.240;2022-12-29T06:59:35;141.87;;;51.50;;
18338;SDS011;9295;44.484;11.240;2022-12-29T07:02:06;139.83;;;53.57;;
18338;SDS011;9295;44.484;11.240;2022-12-29T07:04:37;156.07;;;52.13;;
18338;SDS011;9295;44.484;11.240;2022-12-29T07:07:05;143.07;;;51.23;;
18338;SDS011;9295;44.484;11.240;2022-12-29T07:09:34;139.10;;;52.07;;
18338;SDS011;9295;44.484;11.240;2022-12-29T07:12:03;131.43;;;50.57;;
18338;SDS011;9295;44.484;11.240;2022-12-29T07:14:35;143.50;;;51.00;;
18338;SDS011;9295;44.484;11.240;2022-12-29T07:17:10;138.90;;;50.43;;
18338;SDS011;9295;44.484;11.240;2022-12-29T07:19:39;141.07;;;52.20;;
18338;SDS011;9295;44.484;11.240;2022-12-29T07:22:07;135.43;;;51.20;;
18338;SDS011;9295;44.484;11.240;2022-12-29T07:24:37;141.50;;;50.67;;
18338;SDS011;9295;44.484;11.240;2022-12-29T07:27:05;135.80;;;49.93;;
18338;SDS011;9295;44.484;11.240;2022-12-29T07:29:34;124.60;;;47.07;;
18338;SDS011;9295;44.484;11.240;2022-12-29T07:32:05;150.13;;;49.77;;
18338;SDS011;9295;44.484;11.240;2022-12-29T07:34:35;140.17;;;49.40;;
18338;SDS011;9295;44.484;11.240;2022-12-29T07:37:06;156.13;;;48.67;;
18338;SDS011;9295;44.484;11.240;2022-12-29T07:39:34;128.67;;;47.60;;
18338;SDS011;9295;44.484;11.240;2022-12-29T07:42:03;141.90;;;49.50;;
18338;SDS011;9295;44.484;11.240;2022-12-29T07:44:43;129.73;;;46.60;;
18338;SDS011;9295;44.484;11.240;2022-12-29T07:47:25;138.43;;;49.20;;
18338;SDS011;9295;44.484;11.240;2022-12-29T07:49:55;133.40;;;48.20;;
18338;SDS011;9295;44.484;11.240;2022-12-29T07:52:23;146.60;;;49.07;;
18338;SDS011;9295;44.484;11.240;2022-12-29T07:54:52;125.93;;;46.30;;
18338;SDS011;9295;44.484;11.240;2022-12-29T07:57:21;128.47;;;50.80;;
18338;SDS011;9295;44.484;11.240;2022-12-29T07:59:57;142.67;;;48.40;;
18338;SDS011;9295;44.484;11.240;2022-12-29T08:02:26;134.37;;;49.10;;
18338;SDS011;9295;44.484;11.240;2022-12-29T08:04:57;123.93;;;44.90;;
18338;SDS011;9295;44.484;11.240;2022-12-29T08:07:26;122.97;;;45.37;;
18338;SDS011;9295;44.484;11.240;2022-12-29T08:09:54;128.37;;;47.30;;
18338;SDS011;9295;44.484;11.240;2022-12-29T08:12:23;128.47;;;46.07;;
18338;SDS011;9295;44.484;11.240;2022-12-29T08:14:52;138.67;;;47.77;;
18338;SDS011;9295;44.484;11.240;2022-12-29T08:17:23;132.70;;;47.67;;
18338;SDS011;9295;44.484;11.240;2022-12-29T08:19:51;126.20;;;46.70;;
18338;SDS011;9295;44.484;11.240;2022-12-29T08:22:22;126.63;;;46.97;;
18338;SDS011;9295;44.484;11.240;2022-12-29T08:24:50;120.70;;;44.20;;
18338;SDS011;9295;44.484;11.240;2022-12-29T08:27:19;122.97;;;44.43;;
18338;SDS011;9295;44.484;11.240;2022-12-29T08:29:48;126.67;;;46.00;;
18338;SDS011;9295;44.484;11.240;2022-12-29T08:32:16;130.13;;;46.50;;
18338;SDS011;9295;44.484;11.240;2022-12-29T08:34:45;121.70;;;45.27;;
18338;SDS011;9295;44.484;11.240;2022-12-29T08:37:16;125.10;;;45.20;;
18338;SDS011;9295;44.484;11.240;2022-12-29T08:39:54;114.83;;;44.73;;
18338;SDS011;9295;44.484;11.240;2022-12-29T08:42:25;102.53;;;40.73;;
18338;SDS011;9295;44.484;11.240;2022-12-29T08:44:57;107.20;;;40.53;;
18338;SDS011;9295;44.484;11.240;2022-12-29T08:47:27;98.23;;;40.47;;
18338;SDS011;9295;44.484;11.240;2022-12-29T08:49:56;92.73;;;37.40;;
18338;SDS011;9295;44.484;11.240;2022-12-29T08:52:24;109.20;;;41.20;;
18338;SDS011;9295;44.484;11.240;2022-12-29T08:54:54;111.93;;;41.20;;
18338;SDS011;9295;44.484;11.240;2022-12-29T08:57:23;109.87;;;40.57;;
18338;SDS011;9295;44.484;11.240;2022-12-29T09:00:10;114.20;;;41.73;;
18338;SDS011;9295;44.484;11.240;2022-12-29T09:02:41;106.57;;;40.80;;
18338;SDS011;9295;44.484;11.240;2022-12-29T09:05:13;113.67;;;40.20;;
18338;SDS011;9295;44.484;11.240;2022-12-29T09:07:41;112.77;;;40.33;;
18338;SDS011;9295;44.484;11.240;2022-12-29T09:10:11;113.90;;;40.90;;
18338;SDS011;9295;44.484;11.240;2022-12-29T09:12:42;102.20;;;40.40;;
18338;SDS011;9295;44.484;11.240;2022-12-29T09:15:11;106.53;;;37.73;;
18338;SDS011;9295;44.484;11.240;2022-12-29T09:17:40;107.50;;;39.13;;
18338;SDS011;9295;44.484;11.240;2022-12-29T09:20:08;116.27;;;41.70;;
18338;SDS011;9295;44.484;11.240;2022-12-29T09:22:38;103.73;;;40.17;;
18338;SDS011;9295;44.484;11.240;2022-12-29T09:25:06;108.13;;;40.07;;
18338;SDS011;9295;44.484;11.240;2022-12-29T09:27:37;104.20;;;39.27;;
18338;SDS011;9295;44.484;11.240;2022-12-29T09:30:10;114.40;;;40.63;;
18338;SDS011;9295;44.484;11.240;2022-12-29T09:32:41;103.20;;;40.60;;
18338;SDS011;9295;44.484;11.240;2022-12-29T09:35:12;101.93;;;38.03;;
18338;SDS011;9295;44.484;11.240;2022-12-29T09:37:41;121.20;;;41.03;;
18338;SDS011;9295;44.484;11.240;2022-12-29T09:40:16;105.63;;;38.30;;
18338;SDS011;9295;44.484;11.240;2022-12-29T09:43:12;107.83;;;39.13;;
18338;SDS011;9295;44.484;11.240;2022-12-29T09:45:53;99.50;;;38.33;;
18338;SDS011;9295;44.484;11.240;2022-12-29T09:48:25;112.33;;;42.50;;
18338;SDS011;9295;44.484;11.240;2022-12-29T09:50:57;116.07;;;39.40;;
18338;SDS011;9295;44.484;11.240;2022-12-29T09:53:31;114.17;;;40.00;;
18338;SDS011;9295;44.484;11.240;2022-12-29T09:56:04;120.50;;;42.90;;
18338;SDS011;9295;44.484;11.240;2022-12-29T09:58:41;123.33;;;42.47;;
18338;SDS011;9295;44.484;11.240;2022-12-29T10:01:17;129.37;;;43.20;;
18338;SDS011;9295;44.484;11.240;2022-12-29T10:03:54;119.30;;;41.97;;
18338;SDS011;9295;44.484;11.240;2022-12-29T10:06:25;131.03;;;44.90;;
18338;SDS011;9295;44.484;11.240;2022-12-29T10:09:01;129.60;;;43.57;;
18338;SDS011;9295;44.484;11.240;2022-12-29T10:11:46;145.60;;;43.40;;
18338;SDS011;9295;44.484;11.240;2022-12-29T10:14:29;132.00;;;43.83;;
18338;SDS011;9295;44.484;11.240;2022-12-29T10:17:11;132.20;;;42.07;;
18338;SDS011;9295;44.484;11.240;2022-12-29T10:20:02;116.47;;;41.50;;
18338;SDS011;9295;44.484;11.240;2022-12-29T10:23:04;109.77;;;40.80;;
18338;SDS011;9295;44.484;11.240;2022-12-29T10:25:45;104.80;;;38.53;;
18338;SDS011;9295;44.484;11.240;2022-12-29T10:28:15;111.27;;;39.20;;
18338;SDS011;9295;44.484;11.240;2022-12-29T10:30:50;106.37;;;38.20;;
18338;SDS011;9295;44.484;11.240;2022-12-29T10:33:21;106.77;;;36.63;;
18338;SDS011;9295;44.484;11.240;2022-12-29T10:35:54;111.63;;;40.00;;
18338;SDS011;9295;44.484;11.240;2022-12-29T10:38:23;94.30;;;38.60;;
18338;SDS011;9295;44.484;11.240;2022-12-29T10:40:57;91.20;;;35.60;;
18338;SDS011;9295;44.484;11.240;2022-12-29T10:43:29;95.33;;;36.53;;
18338;SDS011;9295;44.484;11.240;2022-12-29T10:46:04;94.50;;;38.87;;
18338;SDS011;9295;44.484;11.240;2022-12-29T10:48:37;91.97;;;37.73;;
18338;SDS011;9295;44.484;11.240;2022-12-29T10:51:07;90.80;;;36.70;;
18338;SDS011;9295;44.484;11.240;2022-12-29T10:53:38;85.10;;;34.90;;
18338;SDS011;9295;44.484;11.240;2022-12-29T10:56:21;93.33;;;36.40;;
18338;SDS011;9295;44.484;11.240;2022-12-29T10:58:57;99.20;;;39.97;;
18338;SDS011;9295;44.484;11.240;2022-12-29T11:01:32;120.13;;;43.73;;
18338;SDS011;9295;44.484;11.240;2022-12-29T11:04:14;107.07;;;40.83;;
18338;SDS011;9295;44.484;11.240;2022-12-29T11:06:54;127.43;;;44.80;;
18338;SDS011;9295;44.484;11.240;2022-12-29T11:09:27;119.40;;;43.73;;
18338;SDS011;9295;44.484;11.240;2022-12-29T11:12:19;121.23;;;44.23;;
18338;SDS011;9295;44.484;11.240;2022-12-29T11:15:11;110.83;;;42.93;;
18338;SDS011;9295;44.484;11.240;2022-12-29T11:17:46;119.00;;;44.57;;
18338;SDS011;9295;44.484;11.240;2022-12-29T11:20:24;106.90;;;42.27;;
18338;SDS011;9295;44.484;11.240;2022-12-29T11:23:00;125.20;;;44.87;;
18338;SDS011;9295;44.484;11.240;2022-12-29T11:25:29;118.67;;;47.07;;
18338;SDS011;9295;44.484;11.240;2022-12-29T11:28:00;120.43;;;46.47;;
18338;SDS011;9295;44.484;11.240;2022-12-29T11:30:31;119.03;;;46.47;;
18338;SDS011;9295;44.484;11.240;2022-12-29T11:33:02;128.33;;;43.30;;
18338;SDS011;9295;44.484;11.240;2022-12-29T11:35:33;113.67;;;41.93;;
18338;SDS011;9295;44.484;11.240;2022-12-29T11:38:06;110.37;;;42.30;;
18338;SDS011;9295;44.484;11.240;2022-12-29T11:40:47;128.53;;;46.30;;
18338;SDS011;9295;44.484;11.240;2022-12-29T11:43:18;132.97;;;46.90;;
18338;SDS011;9295;44.484;11.240;2022-12-29T11:45:51;139.13;;;45.23;;
18338;SDS011;9295;44.484;11.240;2022-12-29T11:48:24;124.60;;;45.50;;
18338;SDS011;9295;44.484;11.240;2022-12-29T11:50:57;118.90;;;42.63;;
18338;SDS011;9295;44.484;11.240;2022-12-29T11:53:28;117.13;;;47.43;;
18338;SDS011;9295;44.484;11.240;2022-12-29T11:56:05;123.67;;;43.23;;
18338;SDS011;9295;44.484;11.240;2022-12-29T11:58:36;119.07;;;43.47;;
18338;SDS011;9295;44.484;11.240;2022-12-29T12:01:06;122.20;;;46.53;;
18338;SDS011;9295;44.484;11.240;2022-12-29T12:03:44;113.43;;;44.60;;
18338;SDS011;9295;44.484;11.240;2022-12-29T12:06:18;115.30;;;43.10;;
18338;SDS011;9295;44.484;11.240;2022-12-29T12:08:52;108.00;;;41.17;;
18338;SDS011;9295;44.484;11.240;2022-12-29T12:11:24;109.87;;;41.53;;
18338;SDS011;9295;44.484;11.240;2022-12-29T12:14:06;113.77;;;46.07;;
18338;SDS011;9295;44.484;11.240;2022-12-29T12:17:09;113.80;;;42.43;;
18338;SDS011;9295;44.484;11.240;2022-12-29T12:19:43;115.03;;;43.37;;
18338;SDS011;9295;44.484;11.240;2022-12-29T12:22:19;121.60;;;45.10;;
18338;SDS011;9295;44.484;11.240;2022-12-29T12:24:55;99.63;;;40.97;;
18338;SDS011;9295;44.484;11.240;2022-12-29T12:27:30;110.50;;;44.83;;
18338;SDS011;9295;44.484;11.240;2022-12-29T12:30:09;119.53;;;45.33;;
18338;SDS011;9295;44.484;11.240;2022-12-29T12:32:43;114.10;;;45.00;;
18338;SDS011;9295;44.484;11.240;2022-12-29T12:35:19;128.43;;;46.23;;
18338;SDS011;9295;44.484;11.240;2022-12-29T12:38:00;114.87;;;45.70;;
18338;SDS011;9295;44.484;11.240;2022-12-29T12:43:35;112.80;;;48.00;;
18338;SDS011;9295;44.484;11.240;2022-12-29T12:46:12;108.60;;;44.80;;
18338;SDS011;9295;44.484;11.240;2022-12-29T12:49:12;121.00;;;48.67;;
18338;SDS011;9295;44.484;11.240;2022-12-29T12:51:55;114.47;;;44.33;;
18338;SDS011;9295;44.484;11.240;2022-12-29T12:54:40;137.17;;;45.70;;
18338;SDS011;9295;44.484;11.240;2022-12-29T12:57:22;124.10;;;46.27;;
18338;SDS011;9295;44.484;11.240;2022-12-29T13:00:00;130.10;;;48.23;;
18338;SDS011;9295;44.484;11.240;2022-12-29T13:02:36;124.53;;;47.00;;
18338;SDS011;9295;44.484;11.240;2022-12-29T13:05:19;108.87;;;44.60;;
18338;SDS011;9295;44.484;11.240;2022-12-29T13:08:08;103.40;;;42.37;;
18338;SDS011;9295;44.484;11.240;2022-12-29T13:10:55;115.40;;;45.07;;
18338;SDS011;9295;44.484;11.240;2022-12-29T13:13:37;125.40;;;46.37;;
18338;SDS011;9295;44.484;11.240;2022-12-29T13:16:20;125.83;;;49.47;;
18338;SDS011;9295;44.484;11.240;2022-12-29T13:18:56;133.87;;;50.47;;
18338;SDS011;9295;44.484;11.240;2022-12-29T13:21:34;130.00;;;47.40;;
18338;SDS011;9295;44.484;11.240;2022-12-29T13:24:25;113.40;;;44.80;;
18338;SDS011;9295;44.484;11.240;2022-12-29T13:27:04;107.07;;;46.13;;
18338;SDS011;9295;44.484;11.240;2022-12-29T13:29:40;101.60;;;43.97;;
18338;SDS011;9295;44.484;11.240;2022-12-29T13:32:21;111.77;;;46.77;;
18338;SDS011;9295;44.484;11.240;2022-12-29T13:35:01;107.07;;;45.00;;
18338;SDS011;9295;44.484;11.240;2022-12-29T13:37:41;109.60;;;45.60;;
18338;SDS011;9295;44.484;11.240;2022-12-29T13:40:21;114.17;;;46.37;;
18338;SDS011;9295;44.484;11.240;2022-12-29T13:42:52;117.27;;;46.93;;
18338;SDS011;9295;44.484;11.240;2022-12-29T13:45:24;124.03;;;47.17;;
18338;SDS011;9295;44.484;11.240;2022-12-29T13:47:57;114.57;;;47.37;;
18338;SDS011;9295;44.484;11.240;2022-12-29T13:50:31;106.77;;;45.20;;
18338;SDS011;9295;44.484;11.240;2022-12-29T13:53:10;109.40;;;44.80;;
18338;SDS011;9295;44.484;11.240;2022-12-29T13:55:49;94.53;;;40.67;;
18338;SDS011;9295;44.484;11.240;2022-12-29T13:58:24;113.00;;;41.57;;
18338;SDS011;9295;44.484;11.240;2022-12-29T14:01:00;125.17;;;47.10;;
18338;SDS011;9295;44.484;11.240;2022-12-29T14:03:47;124.60;;;47.20;;
18338;SDS011;9295;44.484;11.240;2022-12-29T14:06:21;115.93;;;45.23;;
18338;SDS011;9295;44.484;11.240;2022-12-29T14:08:54;130.60;;;46.23;;
18338;SDS011;9295;44.484;11.240;2022-12-29T14:11:30;129.17;;;50.17;;
18338;SDS011;9295;44.484;11.240;2022-12-29T14:14:10;128.83;;;48.47;;
18338;SDS011;9295;44.484;11.240;2022-12-29T14:16:40;136.23;;;47.60;;
18338;SDS011;9295;44.484;11.240;2022-12-29T14:19:11;110.57;;;41.37;;
18338;SDS011;9295;44.484;11.240;2022-12-29T14:21:55;118.17;;;44.30;;
18338;SDS011;9295;44.484;11.240;2022-12-29T14:24:38;126.23;;;45.27;;
18338;SDS011;9295;44.484;11.240;2022-12-29T14:33:16;158.93;;;48.23;;
18338;SDS011;9295;44.484;11.240;2022-12-29T14:35:46;135.70;;;48.43;;
18338;SDS011;9295;44.484;11.240;2022-12-29T14:38:30;127.10;;;47.40;;
18338;SDS011;9295;44.484;11.240;2022-12-29T14:43:59;124.30;;;47.03;;
18338;SDS011;9295;44.484;11.240;2022-12-29T14:46:46;139.03;;;46.97;;
18338;SDS011;9295;44.484;11.240;2022-12-29T14:49:26;132.90;;;47.47;;
18338;SDS011;9295;44.484;11.240;2022-12-29T14:52:12;139.43;;;47.80;;
18338;SDS011;9295;44.484;11.240;2022-12-29T14:54:49;119.93;;;45.77;;
18338;SDS011;9295;44.484;11.240;2022-12-29T14:57:37;123.30;;;42.50;;
18338;SDS011;9295;44.484;11.240;2022-12-29T15:00:16;120.53;;;43.77;;
18338;SDS011;9295;44.484;11.240;2022-12-29T15:02:49;137.27;;;45.87;;
18338;SDS011;9295;44.484;11.240;2022-12-29T15:05:33;123.07;;;45.47;;
18338;SDS011;9295;44.484;11.240;2022-12-29T15:08:05;140.07;;;46.57;;
18338;SDS011;9295;44.484;11.240;2022-12-29T15:10:37;130.27;;;46.47;;